Time;durP1;ratioP1;P1;durP2;ratioP2;P2;SDS_P1;SDS_P2;PMS_P1;PMS_P2;Temp;Humidity;BMP_temperature;BMP_pressure;BME280_temperature;BME280_humidity;BME280_pressure;Samples;Min_cycle;Max_cycle;Signal;HPM_P1;HPM_P2
2021/07/31 00:01:08;;;;;;;8.73;3.03;;;15.50;99.90;;;14.49;77.37;100420.66;4936716;28;20534;-75
2021/07/31 00:03:36;;;;;;;5.93;2.40;;;15.70;99.90;;;14.72;76.22;100444.75;5002173;28;20038;-75
2021/07/31 00:06:02;;;;;;;13.60;2.75;;;15.90;99.90;;;15.09;74.07;100460.75;5004425;28;20064;-75
2021/07/31 00:08:29;;;;;;;7.20;3.15;;;16.00;99.90;;;15.03;75.82;100450.59;4954052;28;20088;-75
2021/07/31 00:10:57;;;;;;;14.00;3.25;;;15.90;99.90;;;14.88;78.15;100432.16;4987450;28;20109;-75
2021/07/31 00:13:27;;;;;;;11.60;3.28;;;15.80;99.90;;;14.69;79.27;100405.22;4978581;28;20033;-75
2021/07/31 00:15:54;;;;;;;7.53;3.50;;;15.70;99.90;;;14.65;79.25;100393.97;4986063;28;20499;-75
2021/07/31 00:18:20;;;;;;;6.75;2.90;;;15.60;99.90;;;14.60;80.03;100379.34;4993752;28;20022;-75
2021/07/31 00:20:46;;;;;;;13.30;3.22;;;15.60;99.90;;;14.47;84.07;100366.06;4979774;28;20069;-75
2021/07/31 00:23:12;;;;;;;11.38;3.70;;;15.50;99.90;;;14.34;86.43;100392.53;4960788;28;20471;-75
2021/07/31 00:25:38;;;;;;;20.55;3.28;;;15.40;99.90;;;14.30;85.10;100968.44;5002696;28;20069;-75
2021/07/31 00:28:04;;;;;;;7.88;3.30;;;15.40;99.90;;;14.21;87.69;100577.03;4970496;28;20022;-75
2021/07/31 00:30:30;;;;;;;7.50;3.97;;;15.30;99.90;;;14.11;87.59;100514.06;4960939;28;20116;-75
2021/07/31 00:32:57;;;;;;;11.07;4.22;;;15.30;99.90;;;14.05;89.68;100492.44;5003658;28;20053;-75
2021/07/31 00:35:23;;;;;;;12.48;3.97;;;15.20;99.90;;;14.00;90.33;100476.03;4987979;28;20034;-75
2021/07/31 00:37:49;;;;;;;13.73;4.25;;;15.20;99.90;;;13.97;89.90;100471.75;4969178;28;20077;-75
2021/07/31 00:40:15;;;;;;;6.90;3.38;;;15.20;99.90;;;13.99;90.11;100446.03;4987666;28;20677;-75
2021/07/31 00:42:43;;;;;;;8.90;3.38;;;15.20;99.90;;;14.02;89.58;100426.47;4958740;28;20038;-75
2021/07/31 00:45:11;;;;;;;11.43;4.03;;;15.20;99.90;;;14.04;91.20;100427.19;4973053;28;20043;-75
2021/07/31 00:47:38;;;;;;;8.48;4.20;;;15.20;99.90;;;14.05;91.79;100458.88;4972218;28;20031;-76
2021/07/31 00:50:06;;;;;;;12.43;3.88;;;15.30;99.90;;;14.10;90.74;100438.25;4999508;28;20034;-75
2021/07/31 00:52:33;;;;;;;10.02;3.50;;;15.30;99.90;;;14.23;88.90;100435.63;4971880;28;20049;-75
2021/07/31 00:55:00;;;;;;;9.68;3.58;;;15.50;99.90;;;14.37;89.31;100442.66;4975562;28;20065;-75
2021/07/31 00:57:27;;;;;;;14.60;3.58;;;15.50;99.90;;;14.34;90.39;100424.31;4955335;28;20023;-75
2021/07/31 00:59:53;;;;;;;11.15;3.60;;;15.50;99.90;;;14.31;89.34;100432.47;4996018;28;20424;-75
2021/07/31 01:02:19;;;;;;;7.90;3.33;;;15.40;99.90;;;14.27;90.24;100407.97;4998545;28;20030;-75
2021/07/31 01:04:46;;;;;;;7.15;3.00;;;15.40;99.90;;;14.25;89.82;100401.09;4974415;28;20130;-75
2021/07/31 01:07:12;;;;;;;15.50;3.55;;;15.40;99.90;;;14.21;90.51;100391.66;4957623;28;20037;-76
2021/07/31 01:09:42;;;;;;;12.38;3.33;;;15.30;99.90;;;14.18;88.45;100382.13;4973881;28;20129;-75
2021/07/31 01:12:08;;;;;;;8.95;3.47;;;15.40;99.90;;;14.30;85.64;100399.00;4972386;28;20126;-75
2021/07/31 01:14:34;;;;;;;12.13;3.78;;;15.50;99.90;;;14.38;84.71;100395.81;4964139;28;20026;-75
2021/07/31 01:17:00;;;;;;;7.82;3.15;;;15.50;99.90;;;14.33;87.53;100402.28;4957329;28;20037;-76
2021/07/31 01:19:26;;;;;;;11.57;3.50;;;15.50;99.90;;;14.31;87.88;100396.22;4958139;28;20026;-76
2021/07/31 01:21:52;;;;;;;7.68;3.30;;;15.50;99.90;;;14.33;88.63;100386.38;4972690;28;20030;-75
2021/07/31 01:24:18;;;;;;;6.53;3.55;;;15.50;99.90;;;14.28;88.43;100379.72;4966895;28;20469;-76
2021/07/31 01:26:49;;;;;;;7.57;3.60;;;15.50;99.90;;;14.26;88.02;100378.97;4974727;28;20026;-75
2021/07/31 01:29:17;;;;;;;11.75;3.47;;;15.40;99.90;;;14.28;86.00;100375.28;4953520;28;20027;-76
2021/07/31 01:31:45;;;;;;;15.05;3.45;;;15.40;99.90;;;14.28;87.91;100354.09;4955695;28;20081;-75
2021/07/31 01:34:12;;;;;;;9.02;3.92;;;15.40;99.90;;;14.20;88.27;100360.84;4993788;28;20023;-75
2021/07/31 01:36:38;;;;;;;9.05;3.90;;;15.40;99.90;;;14.18;86.81;100371.53;5005670;28;20415;-76
2021/07/31 01:39:05;;;;;;;11.82;3.75;;;15.40;99.90;;;14.26;86.67;100363.09;4949894;28;20810;-76
2021/07/31 01:41:31;;;;;;;9.70;3.80;;;15.50;99.90;;;14.33;86.71;100361.72;4974767;28;20077;-75
2021/07/31 01:43:58;;;;;;;14.88;3.60;;;15.50;99.90;;;14.31;86.51;100343.28;4971459;28;20037;-76
2021/07/31 01:46:24;;;;;;;7.22;3.30;;;15.50;99.90;;;14.32;86.67;100329.09;4987147;28;20065;-75
2021/07/31 01:48:50;;;;;;;10.80;3.67;;;15.40;99.90;;;14.39;85.94;100332.16;4973361;28;20027;-75
2021/07/31 01:51:17;;;;;;;7.85;3.63;;;15.60;99.90;;;14.57;84.63;100348.63;4955737;28;20064;-76
2021/07/31 01:53:43;;;;;;;7.53;4.10;;;15.60;99.90;;;14.54;86.03;100341.69;4979168;28;20034;-75
2021/07/31 01:56:09;;;;;;;13.48;4.05;;;15.70;99.90;;;14.58;85.25;100342.38;4998071;28;20042;-75
2021/07/31 01:58:35;;;;;;;6.15;3.60;;;15.70;99.90;;;14.71;84.42;100347.66;4989724;28;20497;-75
2021/07/31 02:01:02;;;;;;;12.35;3.67;;;15.90;99.90;;;14.98;82.60;100364.25;4971632;28;20553;-75
2021/07/31 02:03:28;;;;;;;7.68;3.22;;;16.00;99.90;;;15.15;82.41;100375.47;4971669;28;20039;-76
2021/07/31 02:05:54;;;;;;;9.55;3.90;;;16.10;99.90;;;15.11;82.35;100347.47;4970339;28;20085;-76
2021/07/31 02:08:21;;;;;;;8.07;4.00;;;16.10;99.90;;;15.08;82.65;100342.41;4984460;28;20517;-75
2021/07/31 02:10:47;;;;;;;11.18;3.50;;;16.20;99.90;;;15.09;82.50;100354.69;4954678;28;20023;-75
2021/07/31 02:13:13;;;;;;;10.55;3.22;;;16.20;99.90;;;14.98;86.58;100457.06;4953974;28;20035;-75
2021/07/31 02:15:43;;;;;;;9.35;4.03;;;16.00;99.90;;;14.82;87.80;100530.66;4952115;28;20498;-75
2021/07/31 02:18:11;;;;;;;9.48;3.80;;;15.90;99.90;;;14.86;87.45;100434.06;4955925;28;20063;-75
2021/07/31 02:20:38;;;;;;;9.05;4.30;;;16.00;99.90;;;14.92;88.53;100427.47;4955304;28;20042;-75
2021/07/31 02:23:06;;;;;;;8.93;3.92;;;16.10;99.90;;;15.03;88.01;100389.59;4990409;28;20494;-76
2021/07/31 02:25:32;;;;;;;15.98;4.47;;;16.10;99.90;;;15.06;87.20;100400.84;4964551;28;20045;-75
2021/07/31 02:27:58;;;;;;;14.70;4.15;;;16.10;99.90;;;15.05;88.28;100396.47;5004559;28;20096;-75
2021/07/31 02:30:25;;;;;;;12.43;4.10;;;16.20;99.90;;;15.12;87.46;100381.00;5004209;28;20030;-75
2021/07/31 02:32:51;;;;;;;10.68;3.65;;;16.20;99.90;;;15.11;87.33;100384.59;4972240;28;20100;-75
2021/07/31 02:35:17;;;;;;;11.25;4.35;;;16.20;99.90;;;15.07;87.58;100385.78;4972069;28;20161;-75
2021/07/31 02:37:44;;;;;;;11.38;4.10;;;16.20;99.90;;;15.07;87.81;100377.81;4986906;28;20367;-75
2021/07/31 02:40:10;;;;;;;8.32;3.70;;;16.20;99.90;;;15.05;88.07;100359.38;4960253;28;20034;-75
2021/07/31 02:42:37;;;;;;;7.65;3.45;;;16.20;99.90;;;15.05;87.75;100358.53;4990999;28;20042;-75
2021/07/31 02:45:06;;;;;;;9.18;3.67;;;16.10;99.90;;;15.05;88.39;100354.06;5000330;28;20044;-75
2021/07/31 02:47:32;;;;;;;11.18;4.20;;;16.20;99.90;;;15.08;88.15;100343.25;4971189;28;20113;-75
2021/07/31 02:49:58;;;;;;;12.05;4.50;;;16.20;99.90;;;15.13;88.20;100345.56;5004876;28;20038;-76
2021/07/31 02:52:24;;;;;;;7.75;3.80;;;16.20;99.90;;;15.14;88.28;100340.16;4965765;28;20022;-75
2021/07/31 02:54:50;;;;;;;8.50;3.38;;;16.30;99.90;;;15.15;87.82;100338.34;4970815;28;20061;-75
2021/07/31 02:57:17;;;;;;;11.93;4.25;;;16.30;99.90;;;15.14;87.82;100332.22;4971661;28;20034;-76
2021/07/31 02:59:43;;;;;;;15.75;4.10;;;16.30;99.90;;;15.14;87.55;100371.13;4969927;28;20023;-76
2021/07/31 03:02:09;;;;;;;8.07;3.78;;;16.20;99.90;;;15.12;88.07;100347.38;4979435;28;20113;-75
2021/07/31 03:04:35;;;;;;;7.72;4.30;;;16.20;99.90;;;15.06;88.78;100339.03;4954375;28;20050;-76
2021/07/31 03:07:01;;;;;;;7.30;3.67;;;16.20;99.90;;;15.01;89.16;100357.91;4942058;28;20027;-76
2021/07/31 03:09:27;;;;;;;9.40;3.90;;;16.20;99.90;;;15.02;89.04;100383.47;4969630;28;20031;-75
2021/07/31 03:11:53;;;;;;;10.55;4.07;;;16.20;99.90;;;15.02;88.86;100353.44;4965743;28;20049;-75
2021/07/31 03:14:19;;;;;;;11.55;4.35;;;16.10;99.90;;;15.01;89.62;100333.19;4946696;28;20069;-75
2021/07/31 03:16:45;;;;;;;9.65;3.92;;;16.10;99.90;;;14.97;89.67;100325.47;4942393;28;20037;-76
2021/07/31 03:19:11;;;;;;;9.35;3.83;;;16.10;99.90;;;15.03;89.04;100334.78;4945378;28;20027;-75
2021/07/31 03:21:37;;;;;;;8.80;4.00;;;16.20;99.90;;;15.03;88.71;100325.97;4944567;28;20049;-75
2021/07/31 03:24:03;;;;;;;10.35;3.90;;;16.20;99.90;;;15.19;87.68;100342.47;4954100;28;20030;-75
2021/07/31 03:26:29;;;;;;;12.13;3.80;;;16.20;99.90;;;15.07;87.53;100319.50;4974149;28;20039;-75
2021/07/31 03:28:55;;;;;;;6.72;3.80;;;16.20;99.90;;;15.06;87.98;100331.06;4945416;28;20130;-77
2021/07/31 03:31:23;;;;;;;10.75;4.70;;;16.10;99.90;;;15.02;88.36;100326.94;4927390;28;20023;-75
2021/07/31 03:33:50;;;;;;;8.13;4.38;;;16.10;99.90;;;15.00;89.08;100321.75;4958736;28;20118;-75
2021/07/31 03:36:16;;;;;;;7.97;4.15;;;16.10;99.90;;;14.94;89.55;100322.16;4951075;28;20026;-75
2021/07/31 03:38:45;;;;;;;9.77;3.92;;;16.00;99.90;;;14.93;90.09;100326.63;4943750;28;20040;-76
2021/07/31 03:41:11;;;;;;;13.85;3.83;;;16.00;99.90;;;14.89;90.09;100319.00;4985287;28;20038;-76
2021/07/31 03:43:37;;;;;;;7.88;4.15;;;16.00;99.90;;;14.84;91.03;100318.47;4952233;28;20039;-75
2021/07/31 03:46:07;;;;;;;10.63;3.92;;;15.90;99.90;;;14.81;91.46;100311.59;4942440;28;20042;-76
2021/07/31 03:48:33;;;;;;;11.32;4.03;;;15.90;99.90;;;14.74;91.84;100313.00;4981948;28;20085;-76
2021/07/31 03:50:59;;;;;;;10.57;4.13;;;15.80;99.90;;;14.67;92.47;100349.69;4968736;28;20038;-76
2021/07/31 03:53:25;;;;;;;10.15;4.05;;;15.80;99.90;;;14.71;92.62;100387.41;4975241;28;20399;-75
2021/07/31 03:55:51;;;;;;;9.98;4.13;;;15.80;99.90;;;14.67;92.49;100362.91;4967395;28;20065;-76
2021/07/31 03:58:17;;;;;;;7.95;4.00;;;15.70;99.90;;;14.65;93.10;100353.41;4964686;28;20026;-76
2021/07/31 04:00:43;;;;;;;10.57;3.88;;;15.70;99.90;;;14.62;93.56;100345.63;4968733;28;20546;-75
2021/07/31 04:03:10;;;;;;;7.72;3.85;;;15.70;99.90;;;14.69;94.00;100355.72;4984710;28;20064;-76
2021/07/31 04:05:40;;;;;;;9.02;4.10;;;15.70;99.90;;;14.69;94.03;100387.50;4967385;28;20045;-75
2021/07/31 04:08:07;;;;;;;9.93;3.88;;;15.80;99.90;;;14.76;94.58;100387.94;4981795;28;20038;-75
2021/07/31 04:10:34;;;;;;;16.00;4.22;;;15.80;99.90;;;14.84;93.66;100344.97;4953425;28;20043;-75
2021/07/31 04:13:00;;;;;;;9.52;4.45;;;16.00;99.90;;;14.93;94.23;100353.16;4966255;28;20031;-76
2021/07/31 04:15:26;;;;;;;10.18;4.32;;;16.00;99.90;;;15.00;93.40;100356.19;4951034;28;20073;-75
2021/07/31 04:17:52;;;;;;;8.95;4.47;;;16.00;99.90;;;15.06;92.48;100365.53;4953509;28;20033;-75
2021/07/31 04:20:18;;;;;;;12.70;4.60;;;16.20;99.90;;;15.21;92.16;100366.25;4952316;28;20038;-75
2021/07/31 04:22:44;;;;;;;11.68;4.03;;;16.20;99.90;;;15.27;91.68;100368.44;4946612;28;20056;-75
2021/07/31 04:25:11;;;;;;;7.47;4.20;;;16.30;99.90;;;15.38;91.25;100377.34;4956575;28;20080;-76
2021/07/31 04:27:36;;;;;;;11.13;4.60;;;16.50;99.90;;;15.52;90.99;100389.59;4964096;28;20019;-75
2021/07/31 04:30:03;;;;;;;11.48;5.07;;;16.60;99.90;;;15.68;89.72;100399.94;4984769;28;20468;-75
2021/07/31 04:32:29;;;;;;;11.98;4.00;;;16.70;99.90;;;15.77;89.49;100404.59;4950762;28;20034;-75
2021/07/31 04:34:55;;;;;;;9.63;4.07;;;16.80;99.90;;;15.85;89.29;100395.22;4962858;28;20026;-75
2021/07/31 04:37:21;;;;;;;8.90;4.25;;;16.90;99.90;;;15.89;89.16;100407.31;4968777;28;20027;-75
2021/07/31 04:39:47;;;;;;;6.45;3.78;;;16.90;99.90;;;15.90;89.80;100399.25;4962077;28;20033;-75
2021/07/31 04:42:13;;;;;;;10.18;4.10;;;16.90;99.90;;;16.00;90.30;100394.06;4987005;28;20607;-75
2021/07/31 04:44:39;;;;;;;8.32;4.18;;;17.20;99.90;;;16.44;88.49;100429.75;4971377;28;20046;-75
2021/07/31 04:47:07;;;;;;;8.48;4.20;;;17.60;99.90;;;16.75;86.19;100430.06;4975675;28;20150;-75
2021/07/31 04:49:36;;;;;;;9.25;4.20;;;17.50;99.90;;;16.52;87.47;100406.09;4971742;28;20029;-75
2021/07/31 04:52:07;;;;;;;12.07;4.15;;;17.80;99.90;;;17.17;85.53;100459.63;4986676;28;20096;-75
2021/07/31 04:54:37;;;;;;;7.53;3.67;;;18.20;99.90;;;17.32;84.23;100460.22;4971228;28;20030;-75
2021/07/31 04:57:03;;;;;;;11.85;3.78;;;18.60;99.90;;;18.13;81.20;100524.78;4947229;28;20037;-76
2021/07/31 04:59:29;;;;;;;7.72;3.42;;;19.40;99.90;;;18.82;77.75;100543.94;4950929;28;20027;-76
2021/07/31 05:01:58;;;;;;;7.90;3.70;;;19.90;99.90;;;19.41;75.49;100573.66;4952076;28;20102;-76
2021/07/31 05:04:24;;;;;;;5.60;3.10;;;20.30;99.90;;;19.78;73.62;100571.31;4952196;28;20448;-75
2021/07/31 05:06:50;;;;;;;6.80;3.22;;;20.50;99.90;;;19.79;73.52;100542.81;4965811;28;20031;-76
2021/07/31 05:09:16;;;;;;;8.10;3.42;;;20.80;99.90;;;20.05;72.33;100554.69;4935378;28;20779;-75
2021/07/31 05:11:42;;;;;;;6.60;3.47;;;20.90;99.90;;;20.31;71.46;100531.94;4934479;28;20462;-75
2021/07/31 05:14:08;;;;;;;11.52;3.20;;;21.10;99.90;;;20.38;71.18;100421.59;4935495;28;20027;-76
2021/07/31 05:16:34;;;;;;;6.75;3.05;;;21.20;99.90;;;20.53;70.55;100427.34;4950288;28;20031;-76
2021/07/31 05:19:00;;;;;;;9.75;3.28;;;21.10;99.90;;;20.41;70.71;100460.56;4950086;28;20030;-76
2021/07/31 05:21:26;;;;;;;9.88;3.33;;;21.10;99.90;;;20.50;70.88;100438.34;4930429;28;20044;-75
2021/07/31 05:23:52;;;;;;;5.55;3.33;;;21.40;99.90;;;20.79;69.10;100517.75;4970814;28;20046;-75
2021/07/31 05:26:18;;;;;;;5.20;2.95;;;21.50;99.90;;;21.05;68.61;100550.94;4962412;28;20122;-75
2021/07/31 05:28:44;;;;;;;5.70;2.92;;;21.80;99.90;;;21.49;67.53;100628.13;4936831;28;20106;-76
2021/07/31 05:31:22;;;;;;;3.88;2.67;;;22.10;99.90;;;21.59;65.55;100555.75;4969101;28;20387;-76
2021/07/31 05:33:49;;;;;;;5.47;3.00;;;22.40;99.90;;;22.05;64.66;100570.06;4960386;28;20042;-76
2021/07/31 05:36:15;;;;;;;7.70;3.05;;;22.60;99.90;;;21.92;63.17;100533.75;4972976;28;20026;-76
2021/07/31 05:38:41;;;;;;;7.70;2.80;;;22.30;99.90;;;21.76;63.77;100512.09;4969621;28;20038;-76
2021/07/31 05:41:16;;;;;;;5.43;2.40;;;22.30;99.90;;;22.00;62.64;100524.94;4966218;28;20070;-76
2021/07/31 05:43:43;;;;;;;6.55;2.15;;;22.50;99.90;;;22.07;61.79;100514.44;4971176;28;20046;-75
2021/07/31 05:46:10;;;;;;;5.38;2.40;;;22.50;99.90;;;22.14;61.39;100523.59;5005816;28;20038;-76
2021/07/31 05:48:36;;;;;;;5.80;2.45;;;22.50;99.90;;;22.07;61.31;100498.38;4986809;28;20117;-76
2021/07/31 05:51:02;;;;;;;6.40;2.88;;;23.10;99.90;;;22.76;59.52;100565.78;4966581;28;20783;-76
2021/07/31 05:53:28;;;;;;;3.97;2.45;;;23.00;99.90;;;22.46;59.77;100528.47;4973261;28;20080;-76
2021/07/31 05:55:55;;;;;;;5.88;2.30;;;22.80;99.90;;;22.49;59.85;100524.63;4975519;28;20487;-76
2021/07/31 05:58:21;;;;;;;3.72;2.10;;;22.80;99.90;;;22.34;59.98;100518.97;4971123;28;20029;-75
2021/07/31 06:00:47;;;;;;;3.63;1.90;;;22.70;99.90;;;22.48;59.84;100529.16;4989761;28;20030;-75
2021/07/31 06:03:13;;;;;;;7.82;1.90;;;22.50;99.90;;;22.12;60.40;100496.94;4995361;28;20035;-76
2021/07/31 06:05:39;;;;;;;5.43;2.08;;;22.30;99.90;;;22.23;61.00;100511.97;4986833;28;20050;-75
2021/07/31 06:08:05;;;;;;;5.53;2.30;;;22.50;99.90;;;22.02;61.18;100477.38;4971070;28;20034;-76
2021/07/31 06:10:31;;;;;;;4.15;1.98;;;22.70;99.90;;;22.62;59.48;100524.25;4974147;28;20490;-75
2021/07/31 06:12:57;;;;;;;7.45;2.03;;;23.00;99.90;;;22.87;59.11;100544.06;4970893;28;20110;-75
2021/07/31 06:15:23;;;;;;;3.10;1.92;;;23.10;99.90;;;23.04;57.60;100553.13;4975855;28;20029;-76
2021/07/31 06:17:49;;;;;;;6.20;2.00;;;23.00;99.90;;;22.68;58.23;100494.13;4985974;28;20286;-76
2021/07/31 06:20:15;;;;;;;7.18;1.58;;;23.50;99.90;;;23.26;55.59;100546.38;4973169;28;20042;-75
2021/07/31 06:22:41;;;;;;;2.42;1.40;;;23.90;99.90;;;24.16;54.60;100622.97;4965295;28;20053;-75
2021/07/31 06:25:07;;;;;;;5.47;1.50;;;24.70;99.90;;;23.93;53.18;100558.19;4987717;28;20034;-76
2021/07/31 06:27:33;;;;;;;5.57;1.65;;;23.40;99.90;;;22.04;57.99;100413.72;4988323;28;20033;-75
2021/07/31 06:30:00;;;;;;;3.28;1.42;;;21.90;99.90;;;20.71;61.95;100325.00;4974604;28;20031;-76
2021/07/31 06:32:26;;;;;;;9.02;1.83;;;21.40;99.90;;;20.98;62.41;100381.22;4972935;28;20150;-75
2021/07/31 06:34:52;;;;;;;9.40;1.70;;;22.00;99.90;;;22.16;58.43;100484.06;4958086;28;20430;-75
2021/07/31 06:37:18;;;;;;;3.05;1.27;;;22.90;99.90;;;22.98;55.61;100530.41;4971922;28;20038;-75
2021/07/31 06:39:44;;;;;;;3.40;1.10;;;22.90;99.90;;;22.38;55.18;100455.13;4972578;28;20033;-76
2021/07/31 06:42:10;;;;;;;2.50;1.27;;;22.70;99.90;;;23.14;54.41;100540.44;4957760;28;20053;-76
2021/07/31 06:44:36;;;;;;;2.13;1.25;;;23.70;99.90;;;23.46;52.90;100523.69;4987496;28;20057;-75
2021/07/31 06:47:02;;;;;;;6.50;1.30;;;23.50;99.90;;;23.77;52.66;100563.50;4963534;28;20037;-76
2021/07/31 06:49:28;;;;;;;3.53;1.10;;;24.30;99.90;;;24.97;50.36;100634.13;4973985;28;20049;-76
2021/07/31 06:51:54;;;;;;;3.60;1.40;;;24.50;99.90;;;24.21;50.21;100549.00;5003978;28;20019;-76
2021/07/31 06:54:20;;;;;;;2.13;1.30;;;24.20;99.90;;;24.29;50.98;100551.72;4972464;28;20030;-76
2021/07/31 06:56:47;;;;;;;9.40;1.33;;;24.20;99.90;;;24.19;51.26;100532.19;4956181;28;22227;-76
2021/07/31 06:59:13;;;;;;;1.83;1.00;;;24.40;99.90;;;24.23;49.59;100520.94;4972128;28;20030;-76
2021/07/31 07:01:39;;;;;;;5.22;1.70;;;23.90;99.90;;;23.93;50.34;100490.97;4974891;28;20422;-75
2021/07/31 07:04:05;;;;;;;5.15;1.40;;;23.90;99.90;;;24.21;50.01;100505.97;4947026;28;20034;-76
2021/07/31 07:06:31;;;;;;;3.63;1.30;;;24.40;99.90;;;24.98;48.80;100573.84;4971584;28;20439;-76
2021/07/31 07:08:57;;;;;;;1.98;1.10;;;24.70;99.90;;;25.11;48.26;100527.53;4972722;28;20076;-76
2021/07/31 07:11:23;;;;;;;3.17;1.23;;;24.40;99.90;;;24.50;48.45;100473.25;4963127;28;20031;-76
2021/07/31 07:13:49;;;;;;;2.28;1.10;;;24.40;99.90;;;24.96;47.47;100546.25;4947368;28;20629;-76
2021/07/31 07:16:18;;;;;;;4.38;1.23;;;24.20;99.90;;;24.23;48.06;100445.59;4968568;28;20019;-76
2021/07/31 07:18:44;;;;;;;4.35;1.00;;;24.00;99.90;;;24.26;48.24;100472.19;4980485;28;20046;-76
2021/07/31 07:21:11;;;;;;;5.68;1.13;;;24.00;99.90;;;24.23;48.41;100460.91;4975654;28;20034;-76
2021/07/31 07:23:37;;;;;;;3.92;1.05;;;23.90;99.90;;;24.12;47.16;100440.56;4964520;28;20379;-76
2021/07/31 07:26:10;;;;;;;2.35;1.02;;;24.20;99.90;;;24.58;45.81;100470.56;4970844;28;20034;-76
2021/07/31 07:28:37;;;;;;;2.50;0.90;;;23.80;99.90;;;23.64;47.88;100399.94;5011668;28;20038;-76
2021/07/31 07:31:05;;;;;;;2.88;0.80;;;24.00;99.90;;;24.35;45.12;100455.03;4970902;28;20048;-76
2021/07/31 07:33:31;;;;;;;4.93;0.95;;;23.60;99.90;;;23.63;46.71;100383.97;4989983;28;20466;-74
2021/07/31 07:35:58;;;;;;;5.13;0.98;;;23.90;99.90;;;24.03;45.43;100414.66;4974058;28;21613;-75
2021/07/31 07:38:24;;;;;;;3.75;0.80;;;23.10;99.90;;;22.28;49.60;100281.72;4962966;28;20042;-77
2021/07/31 07:40:50;;;;;;;2.42;0.95;;;22.60;99.90;;;22.87;49.08;100357.03;4964047;28;20081;-78
2021/07/31 07:43:16;;;;;;;3.38;0.80;;;23.20;99.90;;;23.73;46.18;100407.00;4971113;28;20030;-75
2021/07/31 07:45:44;;;;;;;2.72;0.90;;;23.80;99.90;;;24.33;44.61;100448.16;4982512;28;20056;-75
2021/07/31 07:48:10;;;;;;;3.42;1.00;;;24.10;99.50;;;24.21;43.78;100410.00;4957584;28;20564;-75
2021/07/31 07:50:36;;;;;;;2.60;1.00;;;23.80;99.90;;;23.61;45.14;100345.72;4985673;28;20030;-76
2021/07/31 07:53:02;;;;;;;9.02;1.20;;;23.50;99.70;;;23.64;45.48;100361.50;4982540;28;20027;-75
2021/07/31 07:55:28;;;;;;;5.55;1.00;;;23.80;99.90;;;24.66;44.15;100454.38;4993175;28;20026;-75
2021/07/31 07:57:54;;;;;;;10.40;1.20;;;24.70;99.30;;;25.59;42.83;100506.88;4952539;28;20035;-75
2021/07/31 08:00:20;;;;;;;4.30;1.20;;;25.00;98.50;;;25.52;42.39;100466.28;4929334;28;20041;-76
2021/07/31 08:02:46;;;;;;;3.80;0.80;;;25.00;98.10;;;25.10;42.53;100401.97;5001461;28;20046;-75
2021/07/31 08:05:13;;;;;;;4.47;1.10;;;24.40;99.10;;;24.48;44.39;100355.00;4956761;28;20113;-75
2021/07/31 08:07:41;;;;;;;5.78;1.02;;;24.10;99.20;;;24.12;44.85;100330.28;4983005;28;20030;-76
2021/07/31 08:10:10;;;;;;;5.22;1.10;;;24.20;98.80;;;24.35;43.21;100346.56;4940579;28;20105;-76
2021/07/31 08:12:36;;;;;;;2.83;1.00;;;24.40;98.20;;;24.65;42.56;100368.44;4937023;28;20023;-75
2021/07/31 08:15:02;;;;;;;2.03;0.77;;;24.50;97.30;;;24.60;41.63;100357.31;4938734;28;20026;-76
2021/07/31 08:17:28;;;;;;;7.18;1.17;;;24.60;97.40;;;24.80;41.79;100373.94;4981979;28;20516;-75
2021/07/31 08:19:54;;;;;;;4.97;1.45;;;24.30;97.30;;;23.97;42.69;100291.63;4935922;28;20034;-76
2021/07/31 08:22:20;;;;;;;4.63;0.85;;;23.80;97.80;;;23.79;43.87;100292.66;4940072;28;20030;-75
2021/07/31 08:24:47;;;;;;;7.60;1.20;;;24.20;97.50;;;23.97;43.45;100289.78;5010558;28;20061;-75
2021/07/31 08:27:13;;;;;;;4.65;0.90;;;24.20;97.80;;;23.95;43.73;100287.28;5004270;28;20046;-75
2021/07/31 08:29:39;;;;;;;7.65;1.38;;;24.20;97.50;;;23.85;43.69;100275.03;4962452;28;20019;-75
2021/07/31 08:32:05;;;;;;;4.88;1.00;;;24.30;97.70;;;24.12;43.42;100311.47;4955406;28;20437;-75
2021/07/31 08:34:31;;;;;;;4.82;1.70;;;24.40;97.60;;;24.07;43.73;100292.31;5003453;28;20029;-75
2021/07/31 08:37:04;;;;;;;2.78;0.98;;;24.30;97.90;;;23.84;44.54;100262.56;4938707;28;20115;-75
2021/07/31 08:39:31;;;;;;;4.43;1.20;;;24.40;98.10;;;24.25;44.59;100300.19;4981797;28;20045;-75
2021/07/31 08:41:57;;;;;;;4.95;1.15;;;24.70;97.70;;;24.02;44.32;100254.34;4983665;28;20039;-75
2021/07/31 08:44:23;;;;;;;4.60;0.95;;;23.90;98.50;;;22.99;46.94;100188.41;4960116;28;20208;-75
2021/07/31 08:46:51;;;;;;;3.80;1.02;;;23.50;99.10;;;22.91;47.31;100199.13;4964867;28;19922;-75
2021/07/31 08:49:22;;;;;;;8.10;1.00;;;23.40;99.00;;;22.79;47.08;100193.25;4967505;28;20405;-75
2021/07/31 08:51:49;;;;;;;5.85;1.10;;;23.50;98.60;;;23.01;46.39;100223.19;4993763;28;20023;-75
2021/07/31 08:54:15;;;;;;;7.55;1.60;;;23.30;98.90;;;22.59;47.30;100171.22;4952310;28;20038;-75
2021/07/31 08:56:45;;;;;;;7.32;1.13;;;23.50;99.10;;;23.05;46.73;100213.81;4950604;28;20023;-76
2021/07/31 08:59:11;;;;;;;4.93;0.90;;;23.40;98.60;;;22.87;46.82;100195.97;4963005;28;20110;-75
2021/07/31 09:01:52;;;;;;;4.22;1.10;;;23.90;98.10;;;23.57;45.11;100247.63;4961488;28;20019;-75
2021/07/31 09:04:33;;;;;;;4.88;1.00;;;24.50;97.70;;;24.38;43.73;100315.78;4953370;28;20375;-75
2021/07/31 09:07:32;;;;;;;7.60;0.90;;;24.40;96.70;;;23.77;43.88;100246.28;4953026;28;20104;-75
2021/07/31 09:10:42;;;;;;;7.55;0.77;;;24.80;96.70;;;24.30;42.23;100271.75;4933827;28;20430;-75
2021/07/31 09:13:15;;;;;;;2.60;0.70;;;24.50;96.80;;;23.87;44.36;100235.38;4927022;28;20482;-75
2021/07/31 09:16:14;;;;;;;2.45;0.90;;;24.80;97.00;;;24.24;43.54;100247.41;4948479;28;20505;-75
2021/07/31 09:19:18;;;;;;;3.85;0.80;;;24.20;97.50;;;23.22;45.13;100150.19;4933424;28;20043;-75
2021/07/31 09:22:05;;;;;;;7.82;1.08;;;23.00;98.70;;;22.19;47.97;100102.16;4917308;28;20811;-75
2021/07/31 09:25:17;;;;;;;5.32;1.15;;;22.80;99.60;;;22.29;47.92;100141.28;4961613;28;20069;-75
2021/07/31 09:27:47;;;;;;;9.88;1.30;;;22.60;99.10;;;21.74;48.47;100087.22;4930937;28;20042;-75
2021/07/31 09:30:14;;;;;;;5.00;1.02;;;22.40;99.70;;;21.67;48.65;100133.38;4936665;28;20157;-75
2021/07/31 09:32:44;;;;;;;3.35;1.00;;;22.70;99.60;;;22.35;47.65;100203.31;4935776;28;20065;-75
2021/07/31 09:35:26;;;;;;;4.55;1.00;;;23.00;98.60;;;22.20;47.16;100163.69;4951956;28;20534;-75
2021/07/31 09:38:19;;;;;;;10.98;2.60;;;23.00;98.90;;;22.72;46.90;100211.00;4932576;28;20202;-75
2021/07/31 09:40:49;;;;;;;6.90;1.00;;;23.80;98.50;;;23.61;45.52;100262.41;4939434;28;20117;-75
2021/07/31 09:43:17;;;;;;;5.28;0.90;;;24.30;97.40;;;24.17;43.14;100298.34;4919120;28;20039;-75
2021/07/31 09:46:39;;;;;;;6.75;1.15;;;24.70;96.20;;;24.08;42.09;100257.19;4929601;28;20038;-75
2021/07/31 09:49:50;;;;;;;2.95;0.98;;;24.10;96.20;;;23.22;44.03;100169.84;4908300;28;20043;-75
2021/07/31 09:52:29;;;;;;;7.45;1.70;;;23.00;97.50;;;22.01;46.49;100086.16;4931982;28;20038;-75
2021/07/31 09:55:03;;;;;;;7.75;1.00;;;22.50;98.60;;;21.65;47.98;100070.25;4936596;28;20041;-75
2021/07/31 09:57:44;;;;;;;6.90;1.13;;;22.10;99.50;;;21.22;49.34;100059.41;4977460;28;20045;-74
2021/07/31 10:00:22;;;;;;;11.63;1.20;;;22.00;99.70;;;21.39;48.86;100071.06;4972342;28;20430;-74
2021/07/31 10:03:36;;;;;;;6.85;1.20;;;22.20;99.20;;;21.63;47.62;100094.50;4962034;28;20034;-74
2021/07/31 10:06:14;;;;;;;8.63;1.27;;;22.50;98.10;;;21.99;46.06;100131.06;4932016;28;20061;-75
2021/07/31 10:08:43;;;;;;;14.75;1.20;;;22.70;97.70;;;22.25;45.29;100147.97;4969842;28;20057;-74
2021/07/31 10:11:34;;;;;;;1.80;0.60;;;22.70;97.70;;;22.01;45.21;100112.94;4945604;28;20038;-74
2021/07/31 10:14:04;;;;;;;4.65;0.90;;;22.40;97.70;;;21.66;46.34;100074.59;4926731;28;20033;-75
2021/07/31 10:16:58;;;;;;;2.83;0.57;;;22.60;98.10;;;22.55;44.94;100164.50;4945174;28;20462;-74